Time;durP1;ratioP1;P1;durP2;ratioP2;P2;SDS_P1;SDS_P2;PMS_P1;PMS_P2;Temp;Humidity;BMP_temperature;BMP_pressure;BME280_temperature;BME280_humidity;BME280_pressure;Samples;Min_cycle;Max_cycle;Signal;HPM_P1;HPM_P2
2023/06/24 04:08:30;;;;;;;2.33;2.23;;;15.50;99.90;;;;;;4975984;28;20441;-60
2023/06/24 04:11:00;;;;;;;2.40;2.10;;;15.60;99.90;;;;;;4977421;28;20470;-60
2023/06/24 04:13:25;;;;;;;3.33;2.23;;;15.70;99.90;;;;;;4977049;28;20573;-59
2023/06/24 04:15:51;;;;;;;2.30;2.10;;;15.90;99.90;;;;;;4977025;28;20432;-59
2023/06/24 04:18:17;;;;;;;2.80;2.50;;;16.00;99.90;;;;;;4977268;28;20415;-61
2023/06/24 04:20:43;;;;;;;3.60;2.10;;;16.00;99.90;;;;;;4977038;28;20255;-61
2023/06/24 04:23:10;;;;;;;2.60;2.40;;;16.10;99.90;;;;;;4976737;28;20495;-61
2023/06/24 04:25:36;;;;;;;3.00;2.70;;;16.20;99.90;;;;;;4976907;28;20485;-61
2023/06/24 04:28:04;;;;;;;2.30;2.20;;;16.30;99.90;;;;;;4977295;28;20448;-61
2023/06/24 04:30:30;;;;;;;3.20;2.90;;;16.40;99.90;;;;;;4976843;28;20318;-62
2023/06/24 04:32:55;;;;;;;2.80;2.10;;;16.50;99.90;;;;;;4976722;28;20531;-61
2023/06/24 04:35:21;;;;;;;3.10;2.90;;;16.60;99.90;;;;;;4975638;28;21003;-62
2023/06/24 04:37:49;;;;;;;3.20;2.87;;;16.70;99.90;;;;;;4976953;28;20169;-61
2023/06/24 04:40:14;;;;;;;3.60;2.90;;;16.80;99.90;;;;;;4976974;28;20281;-61
2023/06/24 04:42:40;;;;;;;2.10;2.00;;;16.90;99.90;;;;;;4976712;28;20846;-61
2023/06/24 04:45:06;;;;;;;2.70;2.27;;;17.10;99.90;;;;;;4976353;28;20201;-61
2023/06/24 04:47:32;;;;;;;2.80;2.60;;;17.30;99.90;;;;;;4976609;28;20189;-61
2023/06/24 04:49:57;;;;;;;2.33;2.10;;;17.50;99.90;;;;;;4976550;28;20416;-61
2023/06/24 04:52:26;;;;;;;3.40;3.20;;;17.60;99.90;;;;;;4975321;28;20203;-61
2023/06/24 04:54:51;;;;;;;2.10;1.90;;;17.70;99.90;;;;;;4976131;28;20624;-61
2023/06/24 04:57:26;;;;;;;6.33;2.00;;;17.60;99.90;;;;;;4976702;28;20500;-61
2023/06/24 04:59:52;;;;;;;1.90;1.80;;;17.50;99.90;;;;;;4976514;28;20179;-61
2023/06/24 05:02:17;;;;;;;2.83;2.40;;;17.50;99.90;;;;;;4974590;28;20509;-61
2023/06/24 05:04:43;;;;;;;2.70;2.47;;;17.50;99.90;;;;;;4975532;28;20212;-61
2023/06/24 05:07:09;;;;;;;3.37;2.60;;;17.60;99.90;;;;;;4976219;28;20205;-61
2023/06/24 05:09:37;;;;;;;2.23;2.00;;;17.70;99.90;;;;;;4976201;28;20196;-60
2023/06/24 05:12:04;;;;;;;2.40;2.20;;;17.70;99.90;;;;;;4976202;28;20168;-60
2023/06/24 05:14:29;;;;;;;2.47;2.23;;;17.60;99.90;;;;;;4975718;28;20545;-60
2023/06/24 05:16:55;;;;;;;3.30;3.00;;;17.50;99.90;;;;;;4975562;28;20439;-61
2023/06/24 05:19:20;;;;;;;3.03;2.83;;;17.50;99.90;;;;;;4976022;28;20202;-61
2023/06/24 05:21:46;;;;;;;2.67;2.47;;;17.50;99.90;;;;;;4976048;28;20524;-61
2023/06/24 05:24:11;;;;;;;4.73;2.60;;;17.50;99.90;;;;;;4975477;28;20257;-61
2023/06/24 05:26:37;;;;;;;2.40;2.20;;;17.60;99.90;;;;;;4975864;28;20225;-61
2023/06/24 05:29:03;;;;;;;2.40;2.30;;;17.70;99.90;;;;;;4975939;28;20177;-61
2023/06/24 05:31:28;;;;;;;2.27;2.07;;;17.80;99.90;;;;;;4975650;28;20184;-61
2023/06/24 05:33:54;;;;;;;4.00;2.90;;;18.00;99.90;;;;;;4975254;28;20198;-61
2023/06/24 05:36:20;;;;;;;3.13;2.83;;;18.40;99.90;;;;;;4975738;28;20199;-61
2023/06/24 05:38:45;;;;;;;2.67;2.43;;;18.90;99.90;;;;;;4975316;28;20630;-61
2023/06/24 05:41:11;;;;;;;1.97;1.87;;;19.40;99.90;;;;;;4975686;28;20523;-61
2023/06/24 05:43:37;;;;;;;2.40;2.10;;;19.80;99.90;;;;;;4975294;28;20179;-61
2023/06/24 05:46:03;;;;;;;1.77;1.67;;;20.10;99.90;;;;;;4975464;28;20208;-61
2023/06/24 05:48:28;;;;;;;2.73;2.53;;;20.20;99.90;;;;;;4975393;28;20177;-61
2023/06/24 05:50:54;;;;;;;2.53;2.33;;;20.30;99.90;;;;;;4975318;28;20428;-61
2023/06/24 05:53:19;;;;;;;2.80;2.60;;;20.30;99.90;;;;;;4974605;28;20196;-61
2023/06/24 05:55:45;;;;;;;2.50;2.30;;;20.30;99.90;;;;;;4975219;28;20594;-61
2023/06/24 05:58:11;;;;;;;2.20;2.10;;;20.40;99.90;;;;;;4975417;28;20207;-61
2023/06/24 06:00:36;;;;;;;2.40;2.20;;;20.30;99.90;;;;;;4975370;28;20198;-61
2023/06/24 06:03:02;;;;;;;1.97;1.87;;;20.20;99.90;;;;;;4975261;28;20184;-61
2023/06/24 06:05:28;;;;;;;1.97;1.87;;;20.30;99.90;;;;;;4975010;28;20515;-61
2023/06/24 06:07:53;;;;;;;2.67;2.47;;;20.40;99.90;;;;;;4974591;28;20723;-61
2023/06/24 06:10:19;;;;;;;2.47;2.27;;;20.50;99.90;;;;;;4974696;28;20185;-61
2023/06/24 06:12:45;;;;;;;1.83;1.73;;;20.60;99.90;;;;;;4974672;28;20199;-61
2023/06/24 06:15:11;;;;;;;2.53;2.43;;;20.70;99.90;;;;;;4974866;28;20190;-62
2023/06/24 06:17:37;;;;;;;2.20;2.10;;;20.80;99.90;;;;;;4974975;28;20322;-61
2023/06/24 06:20:03;;;;;;;1.50;1.47;;;20.80;99.90;;;;;;4975303;28;20941;-61
2023/06/24 06:22:29;;;;;;;3.00;2.40;;;20.80;99.90;;;;;;4974958;28;20320;-61
2023/06/24 06:24:54;;;;;;;2.10;2.00;;;20.80;99.90;;;;;;4974658;28;20479;-61
2023/06/24 06:27:20;;;;;;;2.50;1.90;;;20.90;99.90;;;;;;4975006;28;20765;-61
2023/06/24 06:29:46;;;;;;;2.30;2.10;;;21.00;99.90;;;;;;4975137;28;20176;-61
2023/06/24 06:32:11;;;;;;;2.40;2.20;;;21.10;99.90;;;;;;4974529;28;20199;-61
2023/06/24 06:34:37;;;;;;;2.33;2.13;;;21.20;99.90;;;;;;4974326;28;20327;-61
2023/06/24 06:37:03;;;;;;;2.67;2.17;;;21.30;99.90;;;;;;4974388;28;20204;-63
2023/06/24 06:39:28;;;;;;;1.90;1.80;;;21.40;99.90;;;;;;4974758;28;20184;-60
2023/06/24 06:41:54;;;;;;;2.70;2.27;;;21.50;99.90;;;;;;4974824;28;20412;-60
2023/06/24 06:44:21;;;;;;;3.57;2.03;;;21.50;99.90;;;;;;4974147;28;20690;-61
2023/06/24 06:46:46;;;;;;;1.77;1.70;;;21.60;99.80;;;;;;4974741;28;20259;-60
2023/06/24 06:49:12;;;;;;;1.80;1.70;;;21.60;99.90;;;;;;4975368;28;20462;-60
2023/06/24 06:51:37;;;;;;;1.80;1.57;;;21.50;99.90;;;;;;4974494;28;20209;-61
2023/06/24 06:54:03;;;;;;;3.30;2.07;;;21.60;99.90;;;;;;4974112;28;20216;-61
2023/06/24 06:56:29;;;;;;;2.33;2.13;;;21.80;99.90;;;;;;4974637;28;20231;-60
2023/06/24 06:58:54;;;;;;;2.20;1.93;;;21.90;99.40;;;;;;4974454;28;20630;-61
2023/06/24 07:01:20;;;;;;;1.80;1.70;;;22.00;98.50;;;;;;4974438;28;20582;-60
2023/06/24 07:03:46;;;;;;;1.47;1.37;;;22.10;98.00;;;;;;4974009;28;20201;-60
2023/06/24 07:06:11;;;;;;;2.00;1.87;;;22.20;97.60;;;;;;4973844;28;20203;-60
2023/06/24 07:08:37;;;;;;;1.80;1.70;;;22.30;97.20;;;;;;4974472;28;20206;-60
2023/06/24 07:11:03;;;;;;;1.67;1.57;;;22.40;96.90;;;;;;4974353;28;20172;-60
2023/06/24 07:13:28;;;;;;;1.77;1.60;;;22.60;96.90;;;;;;4974091;28;20202;-61
2023/06/24 07:15:54;;;;;;;1.53;1.43;;;22.70;96.80;;;;;;4974010;28;20193;-61
2023/06/24 07:18:20;;;;;;;1.70;1.60;;;22.90;96.30;;;;;;4974424;28;20523;-61
2023/06/24 07:20:45;;;;;;;1.90;1.80;;;23.00;95.70;;;;;;4973974;28;20243;-62
2023/06/24 07:23:11;;;;;;;2.07;1.93;;;23.20;96.00;;;;;;4973668;28;20176;-62
2023/06/24 07:25:37;;;;;;;2.10;1.90;;;23.40;95.70;;;;;;4977028;28;20200;-61
2023/06/24 07:28:03;;;;;;;1.67;1.57;;;23.60;94.90;;;;;;4978123;28;20173;-64
2023/06/24 07:30:29;;;;;;;2.77;2.57;;;23.90;94.50;;;;;;4978005;28;20274;-61
2023/06/24 07:32:54;;;;;;;2.07;1.97;;;24.50;93.90;;;;;;4977501;28;20514;-61
2023/06/24 07:35:20;;;;;;;1.70;1.60;;;25.20;92.90;;;;;;4977437;28;20200;-60
2023/06/24 07:37:46;;;;;;;2.10;1.90;;;26.10;91.10;;;;;;4976518;28;20176;-60
2023/06/24 07:40:11;;;;;;;1.93;1.83;;;27.00;88.30;;;;;;4977824;28;20222;-63
2023/06/24 07:42:37;;;;;;;2.80;2.53;;;28.20;85.60;;;;;;4977744;28;20662;-60
2023/06/24 07:45:03;;;;;;;3.83;3.07;;;29.60;81.10;;;;;;4977249;28;20213;-63
2023/06/24 07:47:29;;;;;;;3.80;2.60;;;30.50;76.90;;;;;;4977894;28;20176;-63
2023/06/24 07:49:54;;;;;;;2.70;2.50;;;31.50;74.40;;;;;;4977447;28;20634;-62
2023/06/24 07:52:20;;;;;;;3.70;3.40;;;32.70;72.00;;;;;;4977318;28;20172;-63
2023/06/24 07:54:45;;;;;;;3.33;3.03;;;33.80;68.20;;;;;;4977119;28;20264;-63
2023/06/24 07:57:11;;;;;;;2.20;2.10;;;34.80;63.80;;;;;;4977525;28;20372;-63
2023/06/24 07:59:36;;;;;;;2.53;2.33;;;35.50;58.80;;;;;;4977463;28;20196;-62
2023/06/24 08:02:02;;;;;;;2.70;2.50;;;35.90;58.80;;;;;;4977340;28;20185;-63
2023/06/24 08:04:28;;;;;;;2.93;2.73;;;36.30;58.60;;;;;;4976297;28;20227;-63
2023/06/24 08:06:53;;;;;;;2.37;2.17;;;36.70;56.00;;;;;;4976922;28;20195;-62
2023/06/24 08:09:19;;;;;;;2.53;2.33;;;37.00;56.60;;;;;;4977039;28;20642;-62
2023/06/24 08:11:45;;;;;;;2.47;2.37;;;37.50;55.30;;;;;;4976113;28;20578;-64
2023/06/24 08:14:10;;;;;;;2.60;2.40;;;38.10;54.60;;;;;;4976768;28;20243;-62
2023/06/24 08:16:37;;;;;;;2.60;2.50;;;38.50;51.90;;;;;;4977263;28;20227;-62
2023/06/24 08:19:02;;;;;;;2.77;2.57;;;38.70;52.80;;;;;;4977141;28;20168;-62
2023/06/24 08:21:29;;;;;;;2.43;2.33;;;38.80;51.90;;;;;;4976811;28;20419;-62
2023/06/24 08:23:55;;;;;;;2.53;2.43;;;38.60;51.20;;;;;;4976391;28;20198;-62
2023/06/24 08:26:21;;;;;;;2.80;2.60;;;38.10;51.20;;;;;;4977057;28;20416;-60
2023/06/24 08:28:47;;;;;;;2.10;2.00;;;38.00;52.10;;;;;;4976976;28;20706;-62
2023/06/24 08:31:13;;;;;;;2.73;2.53;;;38.20;51.30;;;;;;4977007;28;20424;-61
2023/06/24 08:33:42;;;;;;;2.70;2.50;;;38.30;51.00;;;;;;4976421;28;20501;-63
2023/06/24 08:36:07;;;;;;;2.20;2.10;;;38.80;50.70;;;;;;4976363;28;20204;-62
2023/06/24 08:38:33;;;;;;;2.90;2.70;;;39.60;49.70;;;;;;4976605;28;20813;-62
2023/06/24 08:40:59;;;;;;;2.73;2.53;;;40.00;48.10;;;;;;4976600;28;20650;-62
2023/06/24 08:43:24;;;;;;;2.77;2.57;;;39.90;47.90;;;;;;4976238;28;20176;-62
2023/06/24 08:45:50;;;;;;;2.53;2.40;;;39.70;47.50;;;;;;4977219;28;20200;-62
2023/06/24 08:48:16;;;;;;;2.30;2.20;;;39.30;48.90;;;;;;4976786;28;20247;-62
2023/06/24 08:50:46;;;;;;;2.93;2.73;;;39.00;48.10;;;;;;4976474;28;20251;-62
2023/06/24 08:53:13;;;;;;;2.83;2.73;;;39.00;49.00;;;;;;4975699;28;20847;-62
2023/06/24 08:55:45;;;;;;;3.00;2.80;;;39.00;48.20;;;;;;4976119;28;20443;-62
2023/06/24 08:58:11;;;;;;;2.23;2.13;;;39.10;48.30;;;;;;4976489;28;20407;-62
2023/06/24 09:00:36;;;;;;;2.40;2.30;;;39.10;47.50;;;;;;4976392;28;20762;-62
2023/06/24 09:03:02;;;;;;;2.70;2.60;;;39.00;48.00;;;;;;4976564;28;20180;-62
2023/06/24 09:05:27;;;;;;;1.97;1.87;;;39.00;47.60;;;;;;4975947;28;20652;-63
2023/06/24 09:07:53;;;;;;;2.40;2.30;;;38.80;46.10;;;;;;4975317;28;20239;-62
2023/06/24 09:10:36;;;;;;;2.00;1.90;;;38.60;45.50;;;;;;4976257;28;20227;-63
2023/06/24 09:13:06;;;;;;;2.43;2.30;;;38.30;45.40;;;;;;4976087;28;20173;-62
2023/06/24 09:15:35;;;;;;;2.20;2.10;;;37.70;45.70;;;;;;4975831;28;20447;-62
2023/06/24 09:18:02;;;;;;;2.50;2.30;;;37.20;46.10;;;;;;4976131;28;20818;-62
2023/06/24 09:20:30;;;;;;;2.10;2.00;;;37.00;47.10;;;;;;4974636;28;20420;-63
2023/06/24 09:23:03;;;;;;;2.10;2.00;;;37.30;47.50;;;;;;4974960;28;20460;-62
2023/06/24 09:25:29;;;;;;;2.20;2.10;;;37.50;47.40;;;;;;4975324;28;20450;-63
2023/06/24 09:27:58;;;;;;;2.27;2.07;;;37.60;47.00;;;;;;4975969;28;20762;-62
2023/06/24 09:30:25;;;;;;;2.30;2.20;;;37.90;46.50;;;;;;4975805;28;20192;-63
2023/06/24 09:32:52;;;;;;;2.40;2.30;;;38.20;46.10;;;;;;4975663;28;20466;-62
2023/06/24 09:35:22;;;;;;;2.60;2.40;;;38.00;46.60;;;;;;4975201;28;20440;-60
2023/06/24 09:37:56;;;;;;;2.10;2.00;;;37.80;46.40;;;;;;4975624;28;20436;-62
2023/06/24 09:40:23;;;;;;;2.43;2.33;;;37.80;47.30;;;;;;4975579;28;20447;-62
2023/06/24 09:42:56;;;;;;;2.43;2.33;;;38.00;46.30;;;;;;4975004;28;21030;-62
2023/06/24 09:45:27;;;;;;;2.27;2.17;;;38.30;46.30;;;;;;4975093;28;20456;-63
2023/06/24 09:47:54;;;;;;;2.20;2.10;;;38.50;45.70;;;;;;4974784;28;20412;-62
2023/06/24 09:50:20;;;;;;;1.80;1.70;;;38.90;45.20;;;;;;4975556;28;20419;-63
2023/06/24 09:52:46;;;;;;;2.10;2.00;;;39.50;44.00;;;;;;4975305;28;20419;-62
2023/06/24 09:55:16;;;;;;;2.30;2.20;;;39.90;43.30;;;;;;4974914;28;20497;-62
2023/06/24 09:57:45;;;;;;;2.10;2.00;;;40.20;43.70;;;;;;4975046;28;20438;-62
2023/06/24 10:00:15;;;;;;;2.77;2.60;;;40.00;43.40;;;;;;4975194;28;20486;-62
2023/06/24 10:02:41;;;;;;;2.70;2.50;;;39.90;43.50;;;;;;4975163;28;20447;-63
2023/06/24 10:05:07;;;;;;;2.07;1.97;;;39.90;42.80;;;;;;4974794;28;20494;-63
2023/06/24 10:07:35;;;;;;;2.43;2.33;;;40.00;42.60;;;;;;4975279;28;20275;-62
2023/06/24 10:10:03;;;;;;;2.40;2.30;;;40.00;42.50;;;;;;4975245;28;20428;-62
2023/06/24 10:12:28;;;;;;;2.30;2.20;;;39.90;42.80;;;;;;4974905;28;20434;-62
2023/06/24 10:14:54;;;;;;;2.23;2.13;;;39.80;43.10;;;;;;4974614;28;20440;-62
2023/06/24 10:17:21;;;;;;;2.23;2.10;;;39.80;42.80;;;;;;4974980;28;20746;-62
2023/06/24 10:19:46;;;;;;;2.30;2.20;;;39.10;43.20;;;;;;4975057;28;20498;-62
2023/06/24 10:22:12;;;;;;;2.20;2.10;;;38.20;44.20;;;;;;4974841;28;20172;-64
2023/06/24 10:24:41;;;;;;;2.23;2.13;;;37.60;45.00;;;;;;4974345;28;20286;-62
2023/06/24 10:27:13;;;;;;;2.30;2.20;;;37.40;45.80;;;;;;4975070;28;20183;-63
2023/06/24 10:29:39;;;;;;;2.07;1.97;;;37.30;45.90;;;;;;4974761;28;20881;-60
2023/06/24 10:32:08;;;;;;;2.40;2.20;;;37.80;44.70;;;;;;4975108;28;20408;-63
2023/06/24 10:34:46;;;;;;;2.00;1.90;;;38.00;45.50;;;;;;4974010;28;20435;-62
2023/06/24 10:37:14;;;;;;;2.83;2.63;;;37.70;44.30;;;;;;4975002;28;20408;-62
2023/06/24 10:39:52;;;;;;;2.20;2.10;;;37.20;45.10;;;;;;4974613;28;20416;-63
2023/06/24 10:42:43;;;;;;;2.37;2.27;;;36.90;45.80;;;;;;4974329;28;20842;-60
2023/06/24 10:45:09;;;;;;;2.40;2.27;;;36.80;45.50;;;;;;4974195;28;20439;-64
2023/06/24 10:47:35;;;;;;;2.10;2.00;;;36.70;46.00;;;;;;4974727;28;20404;-65
2023/06/24 10:50:01;;;;;;;2.30;2.20;;;36.90;46.30;;;;;;4974487;28;20188;-64
2023/06/24 10:52:27;;;;;;;2.27;2.07;;;36.90;46.00;;;;;;4974744;28;20431;-62
2023/06/24 10:54:53;;;;;;;2.00;1.90;;;36.80;45.70;;;;;;4973560;28;20192;-62
2023/06/24 10:57:26;;;;;;;1.80;1.70;;;36.40;46.50;;;;;;4974672;28;20796;-62
2023/06/24 10:59:54;;;;;;;2.20;2.00;;;36.10;46.70;;;;;;4978400;28;20399;-62
2023/06/24 11:02:21;;;;;;;2.63;2.43;;;35.60;46.90;;;;;;4978579;28;20415;-63
2023/06/24 11:04:50;;;;;;;2.10;1.90;;;35.80;48.10;;;;;;4977879;28;20434;-62
2023/06/24 11:07:27;;;;;;;2.00;1.90;;;35.60;47.40;;;;;;4978197;28;20996;-63
2023/06/24 11:09:58;;;;;;;2.07;1.97;;;35.80;48.40;;;;;;4978212;28;20423;-62
2023/06/24 11:12:28;;;;;;;2.07;1.97;;;35.70;48.00;;;;;;4978362;28;20408;-62
2023/06/24 11:15:02;;;;;;;2.13;2.03;;;35.50;48.00;;;;;;4977841;28;20442;-62
2023/06/24 11:17:28;;;;;;;4.13;3.83;;;34.90;47.60;;;;;;4977955;28;20402;-63
2023/06/24 11:19:55;;;;;;;1.80;1.70;;;34.40;48.50;;;;;;4978302;28;20414;-62
2023/06/24 11:22:22;;;;;;;2.80;2.60;;;33.80;48.10;;;;;;4978085;28;20251;-62
2023/06/24 11:24:47;;;;;;;2.00;1.90;;;33.00;49.40;;;;;;4977809;28;20406;-62
2023/06/24 11:27:13;;;;;;;2.07;1.97;;;32.50;50.50;;;;;;4978303;28;20391;-62
2023/06/24 11:29:39;;;;;;;2.10;2.00;;;32.00;51.20;;;;;;4978115;28;20173;-61
2023/06/24 11:32:08;;;;;;;2.00;1.83;;;31.50;52.60;;;;;;4977733;28;20522;-62
2023/06/24 11:34:34;;;;;;;1.87;1.77;;;31.10;51.50;;;;;;4977524;28;20195;-61
2023/06/24 11:37:10;;;;;;;1.87;1.77;;;30.90;52.50;;;;;;4978110;28;20898;-62
2023/06/24 11:39:35;;;;;;;2.03;1.90;;;30.80;52.80;;;;;;4977984;28;20401;-62
2023/06/24 11:42:01;;;;;;;2.60;2.40;;;30.60;53.20;;;;;;4978011;28;20419;-62
2023/06/24 11:44:27;;;;;;;1.80;1.70;;;30.40;52.70;;;;;;4977136;28;20674;-63
2023/06/24 11:46:52;;;;;;;2.13;2.03;;;30.00;52.60;;;;;;4977325;28;20260;-61
2023/06/24 11:49:19;;;;;;;2.03;1.73;;;29.60;52.90;;;;;;4977698;28;20180;-61
2023/06/24 11:51:52;;;;;;;2.20;1.90;;;29.30;53.30;;;;;;4977722;28;20173;-62
2023/06/24 11:54:20;;;;;;;2.17;2.07;;;29.00;54.10;;;;;;4977117;28;20522;-61
2023/06/24 11:56:54;;;;;;;1.23;1.13;;;28.60;54.30;;;;;;4977711;28;20391;-61
2023/06/24 11:59:25;;;;;;;1.80;1.70;;;28.30;54.40;;;;;;4976575;28;20478;-62
2023/06/24 12:01:55;;;;;;;1.80;1.70;;;28.20;54.30;;;;;;4977171;28;20461;-63
2023/06/24 12:04:26;;;;;;;1.50;1.40;;;28.20;54.30;;;;;;4976712;28;20524;-61
2023/06/24 12:06:52;;;;;;;2.00;1.90;;;28.30;53.90;;;;;;4977192;28;20442;-60
2023/06/24 12:09:18;;;;;;;2.00;1.80;;;28.30;54.80;;;;;;4977280;28;20420;-62
2023/06/24 12:11:43;;;;;;;1.63;1.53;;;28.30;54.60;;;;;;4976506;28;20259;-61
2023/06/24 12:14:09;;;;;;;1.83;1.73;;;28.30;53.70;;;;;;4976826;28;20190;-61
2023/06/24 12:16:35;;;;;;;1.60;1.50;;;28.30;54.10;;;;;;4977232;28;20176;-61
2023/06/24 12:19:00;;;;;;;1.77;1.67;;;28.40;53.70;;;;;;4977185;28;20183;-63
2023/06/24 12:21:26;;;;;;;1.70;1.60;;;28.40;53.20;;;;;;4977112;28;20175;-62
2023/06/24 12:23:52;;;;;;;1.70;1.60;;;28.30;53.00;;;;;;4976293;28;20243;-62
2023/06/24 12:26:17;;;;;;;1.30;1.20;;;28.30;52.80;;;;;;4976802;28;20190;-61
2023/06/24 12:28:43;;;;;;;1.77;1.67;;;28.20;52.70;;;;;;4977070;28;20172;-62
2023/06/24 12:31:08;;;;;;;1.53;1.53;;;28.00;52.50;;;;;;4976827;28;20179;-61
2023/06/24 12:33:34;;;;;;;1.87;1.67;;;27.90;53.50;;;;;;4976599;28;20191;-62
2023/06/24 12:36:00;;;;;;;2.20;2.00;;;28.00;54.30;;;;;;4976762;28;20245;-61
2023/06/24 12:38:25;;;;;;;1.93;1.80;;;28.10;54.60;;;;;;4976531;28;20211;-62
2023/06/24 12:40:52;;;;;;;1.47;1.37;;;28.20;54.80;;;;;;4976783;28;20192;-60
2023/06/24 12:43:18;;;;;;;1.67;1.57;;;28.30;53.80;;;;;;4976061;28;20206;-61
2023/06/24 12:45:43;;;;;;;1.80;1.47;;;28.30;53.20;;;;;;4976714;28;20770;-61
2023/06/24 12:48:10;;;;;;;2.07;1.87;;;28.40;52.50;;;;;;4976681;28;20172;-60
2023/06/24 12:50:35;;;;;;;2.13;1.93;;;28.30;52.70;;;;;;4976600;28;20167;-60
2023/06/24 12:53:02;;;;;;;2.97;1.90;;;28.20;53.20;;;;;;4976366;28;20400;-61
2023/06/24 12:55:28;;;;;;;1.80;1.70;;;28.20;54.00;;;;;;4975812;28;20562;-61
2023/06/24 12:57:54;;;;;;;1.80;1.70;;;28.30;53.80;;;;;;4976521;28;20485;-61
2023/06/24 13:00:21;;;;;;;1.90;1.80;;;28.40;54.20;;;;;;4976535;28;20422;-61
2023/06/24 13:02:47;;;;;;;2.23;2.10;;;28.50;54.00;;;;;;4976319;28;20328;-61
2023/06/24 13:05:12;;;;;;;1.53;1.43;;;28.60;53.60;;;;;;4976087;28;21006;-61
2023/06/24 13:07:38;;;;;;;1.63;1.53;;;28.60;52.90;;;;;;4975642;28;20948;-60
2023/06/24 13:10:05;;;;;;;2.20;1.70;;;28.60;52.90;;;;;;4976334;28;20266;-63
2023/06/24 13:12:32;;;;;;;1.77;1.67;;;28.70;53.40;;;;;;4975570;28;20175;-63
2023/06/24 13:14:57;;;;;;;2.50;2.30;;;28.60;53.80;;;;;;4975902;28;20416;-62
2023/06/24 13:17:24;;;;;;;2.27;1.87;;;28.60;53.30;;;;;;4976121;28;20952;-62
2023/06/24 13:19:50;;;;;;;2.13;2.03;;;28.60;53.70;;;;;;4976445;28;20187;-62
2023/06/24 13:22:16;;;;;;;1.87;1.77;;;28.60;52.80;;;;;;4974904;28;20968;-62
2023/06/24 13:24:41;;;;;;;2.07;1.97;;;28.60;54.20;;;;;;4975396;28;20219;-61
2023/06/24 13:27:07;;;;;;;1.67;1.57;;;28.60;54.00;;;;;;4975776;28;20642;-61
2023/06/24 13:29:33;;;;;;;1.80;1.70;;;28.50;53.70;;;;;;4975765;28;20179;-62
2023/06/24 13:31:58;;;;;;;2.30;2.20;;;28.60;53.50;;;;;;4976025;28;20711;-62
2023/06/24 13:34:24;;;;;;;1.90;1.80;;;28.50;53.40;;;;;;4975413;28;20195;-61
2023/06/24 13:36:50;;;;;;;2.03;1.93;;;28.40;53.20;;;;;;4975806;28;20179;-63
2023/06/24 13:39:18;;;;;;;2.93;2.20;;;28.30;53.70;;;;;;4975775;28;20171;-62
2023/06/24 13:41:47;;;;;;;1.77;1.67;;;28.20;53.80;;;;;;4975371;28;20186;-63
2023/06/24 13:44:13;;;;;;;1.63;1.40;;;28.10;53.90;;;;;;4975096;28;20831;-62
2023/06/24 13:46:38;;;;;;;1.80;1.70;;;28.10;54.00;;;;;;4975466;28;20385;-62
2023/06/24 13:49:04;;;;;;;1.60;1.50;;;28.00;54.00;;;;;;4974374;28;20657;-62
2023/06/24 13:51:29;;;;;;;5.07;2.17;;;28.10;55.20;;;;;;4975422;28;20183;-63
2023/06/24 13:53:55;;;;;;;2.20;2.00;;;28.20;55.40;;;;;;4975079;28;20218;-62
2023/06/24 13:56:23;;;;;;;1.77;1.67;;;28.20;55.10;;;;;;4975532;28;20183;-62
2023/06/24 13:58:50;;;;;;;1.90;1.80;;;28.40;54.80;;;;;;4975509;28;20202;-62
2023/06/24 14:01:15;;;;;;;4.67;4.17;;;28.50;53.70;;;;;;4975294;28;20814;-62
2023/06/24 14:03:41;;;;;;;2.40;2.20;;;28.40;53.20;;;;;;4973486;28;20473;-62
2023/06/24 14:06:07;;;;;;;1.50;1.40;;;28.40;53.60;;;;;;4975127;28;20231;-62
2023/06/24 14:08:33;;;;;;;1.50;1.40;;;28.40;53.80;;;;;;4975257;28;20421;-62
2023/06/24 14:11:00;;;;;;;1.90;1.73;;;28.30;53.40;;;;;;4975477;28;20657;-62
2023/06/24 14:13:27;;;;;;;2.03;1.93;;;28.30;53.40;;;;;;4974807;28;21312;-63
2023/06/24 14:15:53;;;;;;;1.43;1.33;;;28.40;53.40;;;;;;4974830;28;20477;-62
2023/06/24 14:18:19;;;;;;;2.20;2.00;;;28.40;53.30;;;;;;4975109;28;20423;-62
2023/06/24 14:20:45;;;;;;;1.87;1.77;;;28.40;52.60;;;;;;4975089;28;20457;-60
2023/06/24 14:23:10;;;;;;;2.20;2.00;;;28.30;52.60;;;;;;4974698;28;20214;-61
2023/06/24 14:25:37;;;;;;;1.77;1.67;;;28.20;52.70;;;;;;4974826;28;20191;-62
2023/06/24 14:28:06;;;;;;;1.93;1.77;;;28.10;53.00;;;;;;4974715;28;20180;-62
2023/06/24 14:30:32;;;;;;;2.20;2.10;;;28.00;53.20;;;;;;4974885;28;20423;-61
2023/06/24 14:32:58;;;;;;;1.87;1.77;;;28.00;53.40;;;;;;4974476;28;20436;-61
2023/06/24 14:35:23;;;;;;;1.80;1.70;;;28.00;53.50;;;;;;4974516;28;20285;-62
2023/06/24 14:37:49;;;;;;;1.67;1.57;;;28.00;53.00;;;;;;4974644;28;20402;-61
2023/06/24 14:40:14;;;;;;;2.00;1.80;;;28.00;53.20;;;;;;4975203;28;20206;-62
2023/06/24 14:42:40;;;;;;;2.47;2.27;;;27.90;53.80;;;;;;4974553;28;20198;-62
2023/06/24 14:45:06;;;;;;;2.27;2.17;;;27.90;53.40;;;;;;4974394;28;20196;-61
2023/06/24 14:47:32;;;;;;;2.10;1.90;;;27.90;53.50;;;;;;4977666;28;20181;-61
2023/06/24 14:49:57;;;;;;;1.73;1.63;;;27.90;53.90;;;;;;4974771;28;20180;-61
2023/06/24 14:52:23;;;;;;;1.97;1.80;;;27.90;53.60;;;;;;4974541;28;20168;-62
2023/06/24 14:54:49;;;;;;;1.67;1.57;;;28.00;52.90;;;;;;4974284;28;20473;-62
2023/06/24 14:57:15;;;;;;;1.93;1.83;;;28.00;53.40;;;;;;4974605;28;20516;-62
2023/06/24 14:59:41;;;;;;;2.53;2.00;;;28.00;53.10;;;;;;4974512;28;20176;-62
2023/06/24 15:02:07;;;;;;;2.10;1.90;;;28.00;53.60;;;;;;4974559;28;20393;-62
2023/06/24 15:04:33;;;;;;;2.17;1.67;;;28.00;53.50;;;;;;4974051;28;20520;-62
2023/06/24 15:07:00;;;;;;;1.70;1.60;;;28.10;54.30;;;;;;4974222;28;20512;-62
2023/06/24 15:09:25;;;;;;;1.87;1.77;;;28.00;53.80;;;;;;4974675;28;20185;-61
2023/06/24 15:11:51;;;;;;;1.53;1.43;;;28.10;53.60;;;;;;4974662;28;20383;-62
2023/06/24 15:14:16;;;;;;;2.60;1.70;;;28.10;53.60;;;;;;4974289;28;20221;-62
2023/06/24 15:16:42;;;;;;;1.60;1.50;;;28.10;54.00;;;;;;4974360;28;20180;-63
2023/06/24 15:19:08;;;;;;;1.90;1.80;;;28.20;53.00;;;;;;4974531;28;20668;-62
2023/06/24 15:21:33;;;;;;;1.60;1.50;;;28.10;52.00;;;;;;4974300;28;20197;-62
2023/06/24 15:23:59;;;;;;;2.23;2.03;;;28.10;52.30;;;;;;4974472;28;20206;-62
2023/06/24 15:26:24;;;;;;;1.67;1.57;;;28.10;53.30;;;;;;4974498;28;20181;-62
2023/06/24 15:28:50;;;;;;;1.90;1.60;;;28.10;53.00;;;;;;4974302;28;20230;-62
2023/06/24 15:31:15;;;;;;;2.13;2.03;;;28.10;53.20;;;;;;4974378;28;20269;-62
2023/06/24 15:33:41;;;;;;;1.90;1.80;;;28.10;52.70;;;;;;4974195;28;20178;-62
2023/06/24 15:36:07;;;;;;;1.57;1.47;;;28.10;52.70;;;;;;4974626;28;20206;-62
2023/06/24 15:38:33;;;;;;;2.43;1.87;;;27.90;53.10;;;;;;4975272;28;20257;-61
2023/06/24 15:40:58;;;;;;;1.53;1.43;;;27.80;53.60;;;;;;4974450;28;20942;-62
2023/06/24 15:43:24;;;;;;;1.20;1.20;;;27.90;53.20;;;;;;4974213;28;20204;-62
2023/06/24 15:45:50;;;;;;;2.00;1.90;;;27.80;52.90;;;;;;4975419;28;20197;-61
2023/06/24 15:48:16;;;;;;;1.70;1.60;;;27.80;53.10;;;;;;4977902;28;20176;-62
2023/06/24 15:50:41;;;;;;;1.60;1.50;;;27.70;53.40;;;;;;4977685;28;20896;-62
2023/06/24 15:53:07;;;;;;;1.30;1.30;;;27.70;53.60;;;;;;4977567;28;20520;-62
2023/06/24 15:55:33;;;;;;;1.70;1.60;;;27.60;53.50;;;;;;4977673;28;20197;-62
2023/06/24 15:57:58;;;;;;;2.07;1.87;;;27.60;53.60;;;;;;4977453;28;20173;-61
2023/06/24 16:00:24;;;;;;;1.30;1.27;;;27.60;53.50;;;;;;4977344;28;20209;-62
2023/06/24 16:02:49;;;;;;;1.77;1.67;;;27.50;53.70;;;;;;4977282;28;20211;-61
2023/06/24 16:05:15;;;;;;;1.77;1.67;;;27.40;53.40;;;;;;4976788;28;20279;-60
2023/06/24 16:07:41;;;;;;;1.80;1.67;;;27.40;53.70;;;;;;4977176;28;20192;-61
2023/06/24 16:10:07;;;;;;;1.97;1.37;;;27.30;53.80;;;;;;4977677;28;20173;-63
2023/06/24 16:12:33;;;;;;;1.40;1.30;;;27.40;53.90;;;;;;4977084;28;20219;-62
2023/06/24 16:14:58;;;;;;;1.87;1.50;;;27.40;53.20;;;;;;4976868;28;20399;-62
2023/06/24 16:17:24;;;;;;;1.83;1.73;;;27.40;53.20;;;;;;4977312;28;20697;-61
2023/06/24 16:19:49;;;;;;;1.60;1.50;;;27.40;53.00;;;;;;4977007;28;20564;-62
2023/06/24 16:22:15;;;;;;;1.53;1.43;;;27.40;53.10;;;;;;4977339;28;20168;-62
2023/06/24 16:24:40;;;;;;;4.63;2.30;;;27.40;53.10;;;;;;4976548;28;20694;-61
2023/06/24 16:27:06;;;;;;;1.47;1.37;;;27.40;53.70;;;;;;4977086;28;20251;-62
2023/06/24 16:29:32;;;;;;;1.47;1.43;;;27.40;53.20;;;;;;4977075;28;20165;-62
2023/06/24 16:31:57;;;;;;;1.80;1.70;;;27.30;53.30;;;;;;4975734;28;20176;-62
2023/06/24 16:34:23;;;;;;;1.70;1.60;;;27.30;53.90;;;;;;4976196;28;20287;-61
2023/06/24 16:36:49;;;;;;;1.63;1.53;;;27.30;52.80;;;;;;4976749;28;20175;-62
2023/06/24 16:39:14;;;;;;;2.57;1.57;;;27.30;53.10;;;;;;4976741;28;20176;-62
2023/06/24 16:41:40;;;;;;;1.83;1.70;;;27.30;53.30;;;;;;4976728;28;20176;-62
2023/06/24 16:44:05;;;;;;;2.03;1.93;;;27.30;53.10;;;;;;4976045;28;20204;-62
2023/06/24 16:46:31;;;;;;;2.53;2.10;;;27.20;53.40;;;;;;4976848;28;20188;-62
2023/06/24 16:48:59;;;;;;;1.30;1.20;;;27.20;53.50;;;;;;4976577;28;20199;-61
2023/06/24 16:51:24;;;;;;;1.50;1.40;;;27.20;53.50;;;;;;4976720;28;20176;-62